createdAt,value
2022-08-17T00:01:44.943Z,100441.84
2022-08-17T00:04:19.226Z,100435.72
2022-08-17T00:06:49.064Z,100437.88
2022-08-17T00:09:18.977Z,100446.41
2022-08-17T00:12:43.786Z,100438.97
2022-08-17T00:14:35.945Z,100434.13
2022-08-17T00:17:04.530Z,100436.81
2022-08-17T00:19:32.548Z,100436.28
2022-08-17T00:22:32.410Z,100433.91
2022-08-17T00:24:47.480Z,100433.41
2022-08-17T00:27:14.045Z,100426.47
2022-08-17T00:29:41.067Z,100429.13
2022-08-17T00:33:10.814Z,100428.63
2022-08-17T00:34:54.368Z,100429.41
2022-08-17T00:37:20.941Z,100427.03
2022-08-17T00:39:47.583Z,100425.69
2022-08-17T00:42:16.433Z,100429.16
2022-08-17T00:44:42.959Z,100430.22
2022-08-17T00:47:09.644Z,100432.66
2022-08-17T00:49:36.210Z,100426.22
2022-08-17T00:52:11.800Z,100420.38
2022-08-17T00:54:42.519Z,100427.31
2022-08-17T00:57:22.894Z,100423.03
2022-08-17T01:00:12.732Z,100416.88
2022-08-17T01:02:43.190Z,100413.91
2022-08-17T01:05:18.496Z,100411.81
2022-08-17T01:07:47.687Z,100416.06
2022-08-17T01:10:58.841Z,100411.00
2022-08-17T01:13:04.575Z,100405.66
2022-08-17T01:15:36.627Z,100407.53
2022-08-17T01:18:05.661Z,100416.84
2022-08-17T01:20:32.533Z,100416.31
2022-08-17T01:23:18.591Z,100412.84
2022-08-17T01:25:54.288Z,100422.72
2022-08-17T01:28:53.426Z,100417.16
2022-08-17T01:31:09.260Z,100428.59
2022-08-17T01:33:36.312Z,100417.38
2022-08-17T01:36:04.132Z,100420.84
2022-08-17T01:38:31.815Z,100416.56
2022-08-17T01:41:02.937Z,100415.25
2022-08-17T01:43:46.823Z,100412.28
2022-08-17T01:46:28.220Z,100417.91
2022-08-17T01:48:56.226Z,100418.44
2022-08-17T01:51:25.893Z,100418.44
2022-08-17T01:53:57.351Z,100413.84
2022-08-17T01:56:25.582Z,100416.78
2022-08-17T01:58:52.601Z,100414.63
2022-08-17T02:01:21.712Z,100412.50
2022-08-17T02:03:53.479Z,100412.22
2022-08-17T02:06:28.893Z,100415.69
2022-08-17T02:09:01.526Z,100410.31
2022-08-17T02:11:28.611Z,100416.72
2022-08-17T02:14:02.418Z,100415.41
2022-08-17T02:16:36.947Z,100413.00
2022-08-17T02:19:16.044Z,100408.44
2022-08-17T02:21:45.241Z,100402.31
2022-08-17T02:24:15.500Z,100406.56
2022-08-17T02:26:42.129Z,100407.34
2022-08-17T02:29:08.720Z,100408.16
2022-08-17T02:31:35.509Z,100411.63
2022-08-17T02:34:03.993Z,100412.13
2022-08-17T02:36:33.264Z,100416.34
2022-08-17T02:39:07.512Z,100410.50
2022-08-17T02:41:34.483Z,100407.00
2022-08-17T02:44:01.349Z,100411.81
2022-08-17T02:46:28.282Z,100405.91
2022-08-17T02:48:54.895Z,100400.34
2022-08-17T02:51:21.710Z,100410.72
2022-08-17T02:53:48.266Z,100402.19
2022-08-17T02:56:14.846Z,100412.28
2022-08-17T02:58:41.464Z,100409.88
2022-08-17T03:01:09.971Z,100404.56
2022-08-17T03:03:37.529Z,100407.22
2022-08-17T03:06:05.032Z,100406.94
2022-08-17T03:08:31.576Z,100404.53
2022-08-17T03:10:58.151Z,100401.56
2022-08-17T03:13:24.657Z,100402.38
2022-08-17T03:15:51.181Z,100398.59
2022-08-17T03:18:25.696Z,100410.59
2022-08-17T03:20:58.353Z,100395.69
2022-08-17T03:23:27.312Z,100394.84
2022-08-17T03:25:55.057Z,100392.97
2022-08-17T03:28:23.474Z,100398.53
2022-08-17T03:30:53.881Z,100391.34
2022-08-17T03:33:20.607Z,100395.88
2022-08-17T03:35:47.433Z,100398.78
2022-08-17T03:38:16.932Z,100395.31
2022-08-17T03:40:57.256Z,100396.91
2022-08-17T03:43:30.934Z,100403.44
2022-08-17T03:46:28.777Z,100384.56
2022-08-17T03:49:22.036Z,100397.50
2022-08-17T03:52:07.125Z,100398.25
2022-08-17T03:54:52.340Z,100392.94
2022-08-17T03:57:19.140Z,100403.72
2022-08-17T03:59:46.002Z,100401.19
2022-08-17T04:02:24.673Z,100405.47
2022-08-17T04:04:52.235Z,100405.72
2022-08-17T04:07:21.524Z,100410.28
2022-08-17T04:09:48.748Z,100409.69
2022-08-17T04:12:17.795Z,100409.44
2022-08-17T04:14:52.945Z,100400.66
2022-08-17T04:17:28.771Z,100402.78
2022-08-17T04:19:55.894Z,100405.94
2022-08-17T04:22:32.680Z,100415.25
2022-08-17T04:25:18.620Z,100425.09
2022-08-17T04:27:45.188Z,100427.16
2022-08-17T04:30:12.973Z,100438.31
2022-08-17T04:33:10.609Z,100442.19
2022-08-17T04:35:49.337Z,100437.16
2022-08-17T04:38:18.903Z,100444.59
2022-08-17T04:41:04.116Z,100431.53
2022-08-17T04:43:32.417Z,100438.78
2022-08-17T04:46:04.787Z,100433.63
2022-08-17T04:48:37.257Z,100432.84
2022-08-17T04:51:10.510Z,100437.09
2022-08-17T04:53:38.713Z,100437.66
2022-08-17T04:56:05.889Z,100441.94
2022-08-17T04:58:32.552Z,100437.94
2022-08-17T05:00:59.642Z,100437.03
2022-08-17T05:03:26.248Z,100437.06
2022-08-17T05:05:53.672Z,100442.19
2022-08-17T05:08:21.107Z,100438.97
2022-08-17T05:10:48.717Z,100432.56
2022-08-17T05:13:23.866Z,100431.19
2022-08-17T05:15:56.031Z,100433.91
2022-08-17T05:18:22.719Z,100434.44
2022-08-17T05:20:52.478Z,100444.94
2022-08-17T05:23:21.424Z,100446.09
2022-08-17T05:25:50.766Z,100435.97
2022-08-17T05:28:22.911Z,100435.31
2022-08-17T05:30:55.117Z,100433.44
2022-08-17T05:33:25.131Z,100432.25
2022-08-17T05:35:54.485Z,100432.47
2022-08-17T05:38:24.256Z,100434.78
2022-08-17T05:40:52.014Z,100427.94
2022-08-17T05:43:23.197Z,100436.16
2022-08-17T05:45:56.413Z,100449.31
2022-08-17T05:48:35.585Z,100485.81
2022-08-17T05:51:31.243Z,100495.53
2022-08-17T05:54:05.423Z,100494.13
2022-08-17T05:56:48.143Z,100489.28
2022-08-17T05:59:36.417Z,100470.50
2022-08-17T06:02:22.105Z,100478.25
2022-08-17T06:05:13.194Z,100483.38
2022-08-17T06:07:46.023Z,100481.44
2022-08-17T06:10:14.680Z,100484.22
2022-08-17T06:13:23.075Z,100480.31
2022-08-17T06:16:33.247Z,100486.66
2022-08-17T06:19:02.398Z,100476.28
2022-08-17T06:21:35.796Z,100484.16
2022-08-17T06:24:13.275Z,100490.88
2022-08-17T06:26:44.270Z,100486.34
2022-08-17T06:29:41.115Z,100488.56
2022-08-17T06:32:10.245Z,100485.09
2022-08-17T06:34:43.590Z,100487.16
2022-08-17T06:37:26.333Z,100488.41
2022-08-17T06:39:55.694Z,100491.13
2022-08-17T06:42:55.041Z,100490.38
2022-08-17T06:45:34.654Z,100493.72
2022-08-17T06:48:11.265Z,100484.00
2022-08-17T06:51:00.199Z,100493.31
2022-08-17T06:53:34.881Z,100507.50
2022-08-17T06:56:01.350Z,100503.56
2022-08-17T06:58:31.354Z,100508.84
2022-08-17T07:01:16.896Z,100517.25
2022-08-17T07:03:46.123Z,100518.31
2022-08-17T07:06:17.063Z,100522.41
2022-08-17T07:09:00.087Z,100530.75
2022-08-17T07:11:48.365Z,100522.72
2022-08-17T07:14:36.874Z,100520.03
2022-08-17T07:17:09.421Z,100528.44
2022-08-17T07:19:41.012Z,100528.63
2022-08-17T07:22:22.824Z,100530.06
2022-08-17T07:25:02.341Z,100531.66
2022-08-17T07:27:32.785Z,100531.47
2022-08-17T07:30:16.397Z,100535.13
2022-08-17T07:32:59.621Z,100526.56
2022-08-17T07:35:37.573Z,100526.97
2022-08-17T07:38:25.941Z,100527.75
2022-08-17T07:41:02.818Z,100526.13
2022-08-17T07:43:41.914Z,100516.00
2022-08-17T07:46:29.823Z,100515.50
2022-08-17T07:49:07.429Z,100533.16
2022-08-17T07:51:37.819Z,100534.41
2022-08-17T07:54:20.281Z,100540.59
2022-08-17T07:56:57.373Z,100540.16
2022-08-17T07:59:27.189Z,100542.38
2022-08-17T08:02:03.801Z,100549.38
2022-08-17T08:04:59.230Z,100551.59
2022-08-17T08:07:31.789Z,100560.03
2022-08-17T08:10:12.521Z,100556.56
2022-08-17T08:12:45.429Z,100556.75
2022-08-17T08:15:35.497Z,100563.09
2022-08-17T08:18:05.987Z,100561.28
2022-08-17T08:20:51.678Z,100563.88
2022-08-17T08:23:44.713Z,100568.47
2022-08-17T08:26:28.039Z,100561.31
2022-08-17T08:29:01.321Z,100566.41
2022-08-17T08:31:42.023Z,100575.78
2022-08-17T08:34:49.717Z,100577.88
2022-08-17T08:37:39.082Z,100577.13
2022-08-17T08:40:36.331Z,100572.72
2022-08-17T08:43:40.472Z,100579.34
2022-08-17T08:46:32.087Z,100572.31
2022-08-17T08:49:12.685Z,100573.41
2022-08-17T08:51:52.437Z,100570.53
2022-08-17T08:54:34.357Z,100574.75
2022-08-17T08:57:29.396Z,100569.44
2022-08-17T09:00:02.993Z,100564.31
2022-08-17T09:03:02.969Z,100559.00
2022-08-17T09:05:36.513Z,100564.09
2022-08-17T09:08:16.201Z,100564.91
2022-08-17T09:10:57.761Z,100565.13
2022-08-17T09:13:38.882Z,100563.03
2022-08-17T09:16:16.559Z,100563.16
2022-08-17T09:19:00.954Z,100560.38
2022-08-17T09:21:54.491Z,100556.91
2022-08-17T09:24:28.254Z,100561.41
2022-08-17T09:27:02.921Z,100558.47
2022-08-17T09:29:34.971Z,100568.53
2022-08-17T09:32:09.917Z,100574.94
2022-08-17T09:34:47.104Z,100568.97
2022-08-17T09:37:21.122Z,100580.56
2022-08-17T09:40:14.267Z,100590.56
2022-08-17T09:42:57.550Z,100585.22
2022-08-17T09:45:47.062Z,100583.63
2022-08-17T09:48:21.056Z,100593.44
2022-08-17T09:51:08.411Z,100590.56
2022-08-17T09:53:39.255Z,100577.22
2022-08-17T09:56:05.744Z,100583.47
2022-08-17T09:59:11.233Z,100579.53
2022-08-17T10:01:46.190Z,100587.50
2022-08-17T10:04:32.585Z,100589.56
2022-08-17T10:07:11.614Z,100594.78
2022-08-17T10:10:04.331Z,100599.44
2022-08-17T10:12:50.031Z,100596.63
2022-08-17T10:15:54.941Z,100605.47
2022-08-17T10:18:37.642Z,100601.78
2022-08-17T10:21:35.220Z,100616.66
2022-08-17T10:24:28.805Z,100617.09
2022-08-17T10:26:59.741Z,100611.78
2022-08-17T10:29:46.178Z,100607.91
2022-08-17T10:32:24.753Z,100614.75
2022-08-17T10:35:16.807Z,100615.59
2022-08-17T10:38:24.340Z,100616.47
2022-08-17T10:41:02.101Z,100619.28
2022-08-17T10:44:39.450Z,100624.00
2022-08-17T10:46:52.160Z,100611.47
2022-08-17T10:49:18.759Z,100609.41
2022-08-17T10:51:54.444Z,100607.00
2022-08-17T10:54:41.169Z,100587.41
2022-08-17T10:57:26.550Z,100577.47
2022-08-17T10:59:54.843Z,100564.81
2022-08-17T11:02:31.485Z,100559.09
2022-08-17T11:05:15.674Z,100561.88
2022-08-17T11:07:54.397Z,100557.25
2022-08-17T11:10:52.219Z,100561.66
2022-08-17T11:13:44.923Z,100565.13
2022-08-17T11:16:35.327Z,100567.56
2022-08-17T11:19:11.201Z,100565.97
2022-08-17T11:22:11.764Z,100566.16
2022-08-17T11:24:46.809Z,100577.47
2022-08-17T11:27:34.147Z,100584.75
2022-08-17T11:30:04.977Z,100583.63
2022-08-17T11:32:34.318Z,100582.59
2022-08-17T11:35:07.276Z,100602.47
2022-08-17T11:38:25.691Z,100597.75
2022-08-17T11:41:34.970Z,100608.34
2022-08-17T11:44:08.509Z,100601.97
2022-08-17T11:47:18.521Z,100604.72
2022-08-17T11:50:34.755Z,100598.06
2022-08-17T11:53:03.871Z,100611.69
2022-08-17T11:55:38.236Z,100617.78
2022-08-17T11:58:06.329Z,100609.22
2022-08-17T12:00:56.608Z,100610.25
2022-08-17T12:03:32.418Z,100619.63
2022-08-17T12:06:21.225Z,100619.50
2022-08-17T12:09:06.792Z,100619.19
2022-08-17T12:11:57.795Z,100621.91
2022-08-17T12:17:39.259Z,100622.75
2022-08-17T12:20:38.342Z,100618.47
2022-08-17T12:23:24.847Z,100626.22
2022-08-17T12:26:00.356Z,100627.81
2022-08-17T12:28:28.290Z,100634.22
2022-08-17T12:31:01.139Z,100624.59
2022-08-17T12:33:28.916Z,100625.22
2022-08-17T12:36:05.502Z,100630.25
2022-08-17T12:38:38.027Z,100629.47
2022-08-17T12:41:26.001Z,100626.47
2022-08-17T12:44:02.101Z,100631.84
2022-08-17T12:46:44.672Z,100628.91
2022-08-17T12:49:15.525Z,100633.72
2022-08-17T12:51:46.775Z,100626.16
2022-08-17T12:54:26.454Z,100628.97
2022-08-17T12:56:53.644Z,100623.25
2022-08-17T12:59:30.297Z,100623.84
2022-08-17T13:01:57.631Z,100616.09
2022-08-17T13:04:24.715Z,100616.06
2022-08-17T13:06:58.202Z,100619.00
2022-08-17T13:09:35.408Z,100624.06
2022-08-17T13:12:03.061Z,100631.56
2022-08-17T13:14:33.377Z,100625.72
2022-08-17T13:17:06.278Z,100627.34
2022-08-17T13:19:47.794Z,100629.16
2022-08-17T13:22:14.654Z,100634.22
2022-08-17T13:24:54.685Z,100631.28
2022-08-17T13:27:23.794Z,100645.22
2022-08-17T13:29:56.293Z,100651.06
2022-08-17T13:32:46.911Z,100649.78
2022-08-17T13:35:38.937Z,100645.25
2022-08-17T13:38:40.462Z,100635.50
2022-08-17T13:41:07.499Z,100626.44
2022-08-17T13:43:49.470Z,100623.28
2022-08-17T13:46:28.334Z,100639.00
2022-08-17T13:49:05.051Z,100632.59
2022-08-17T13:51:42.221Z,100642.91
2022-08-17T13:54:18.979Z,100639.09
2022-08-17T13:56:49.933Z,100636.41
2022-08-17T13:59:54.707Z,100641.22
2022-08-17T14:02:27.227Z,100640.97
2022-08-17T14:04:55.870Z,100646.84
2022-08-17T14:07:27.274Z,100647.09
2022-08-17T14:10:09.076Z,100639.34
2022-08-17T14:12:39.103Z,100642.75
2022-08-17T14:15:06.781Z,100642.78
2022-08-17T14:17:38.076Z,100639.59
2022-08-17T14:20:12.209Z,100625.97
2022-08-17T14:22:46.299Z,100628.91
2022-08-17T14:25:15.502Z,100626.22
2022-08-17T14:27:52.893Z,100628.09
2022-08-17T14:30:26.686Z,100626.78
2022-08-17T14:32:56.487Z,100624.09
2022-08-17T14:35:24.330Z,100617.72
2022-08-17T14:37:52.425Z,100617.69
2022-08-17T14:40:24.313Z,100625.72
2022-08-17T14:42:52.964Z,100622.50
2022-08-17T14:45:31.470Z,100621.38
2022-08-17T14:48:07.498Z,100622.22
2022-08-17T14:50:36.454Z,100615.31
2022-08-17T14:53:05.267Z,100610.47
2022-08-17T14:55:32.447Z,100605.66
2022-08-17T14:57:59.111Z,100607.78
2022-08-17T15:00:26.821Z,100608.03
2022-08-17T15:02:56.536Z,100600.06
2022-08-17T15:05:26.089Z,100599.78
2022-08-17T15:07:53.657Z,100595.78
2022-08-17T15:10:21.010Z,100594.41
2022-08-17T15:12:47.967Z,100606.19
2022-08-17T15:15:17.099Z,100591.53
2022-08-17T15:17:46.024Z,100589.09
2022-08-17T15:20:15.918Z,100585.59
2022-08-17T15:22:43.956Z,100582.44
2022-08-17T15:25:11.661Z,100587.25
2022-08-17T15:27:38.613Z,100592.06
2022-08-17T15:30:07.248Z,100581.63
2022-08-17T15:32:37.983Z,100580.81
2022-08-17T15:35:06.363Z,100581.84
2022-08-17T15:37:33.347Z,100585.31
2022-08-17T15:40:01.243Z,100584.00
2022-08-17T15:42:29.238Z,100574.41
2022-08-17T15:44:56.039Z,100577.09
2022-08-17T15:47:23.439Z,100573.06
2022-08-17T15:49:50.775Z,100576.53
2022-08-17T15:52:29.669Z,100576.03
2022-08-17T15:55:00.635Z,100574.97
2022-08-17T15:57:28.027Z,100569.59
2022-08-17T15:59:58.953Z,100569.34
2022-08-17T16:03:15.019Z,100570.16
2022-08-17T16:05:24.794Z,100578.69
2022-08-17T16:07:52.521Z,100585.91
2022-08-17T16:10:19.781Z,100582.94
2022-08-17T16:12:48.181Z,100586.97
2022-08-17T16:15:16.459Z,100581.38
2022-08-17T16:17:43.088Z,100588.84
2022-08-17T16:20:20.021Z,100595.50
2022-08-17T16:22:49.226Z,100605.63
2022-08-17T16:25:19.114Z,100604.06
2022-08-17T16:27:48.227Z,100608.59
2022-08-17T16:30:17.676Z,100607.81
2022-08-17T16:32:45.919Z,100606.19
2022-08-17T16:35:16.156Z,100610.22
2022-08-17T16:37:45.454Z,100610.44
2022-08-17T16:40:14.320Z,100602.19
2022-08-17T16:42:43.145Z,100602.44
2022-08-17T16:45:18.810Z,100600.84
2022-08-17T16:47:45.857Z,100597.09
2022-08-17T16:50:15.481Z,100598.94
2022-08-17T16:52:42.143Z,100593.63
2022-08-17T16:55:13.377Z,100594.72
2022-08-17T16:57:47.539Z,100603.28
2022-08-17T17:00:17.422Z,100587.25
2022-08-17T17:02:47.200Z,100595.28
2022-08-17T17:05:25.135Z,100598.44
2022-08-17T17:08:14.996Z,100594.44
2022-08-17T17:10:50.733Z,100586.97
2022-08-17T17:13:32.193Z,100594.72
2022-08-17T17:16:05.714Z,100605.66
2022-08-17T17:18:47.585Z,100604.28
2022-08-17T17:21:19.827Z,100608.88
2022-08-17T17:23:54.921Z,100598.41
2022-08-17T17:26:24.563Z,100597.41
2022-08-17T17:29:19.979Z,100607.31
2022-08-17T17:32:02.021Z,100603.56
2022-08-17T17:34:33.387Z,100599.78
2022-08-17T17:37:07.094Z,100609.09
2022-08-17T17:39:33.633Z,100613.28
2022-08-17T17:42:07.686Z,100600.22
2022-08-17T17:44:43.717Z,100605.50
2022-08-17T17:47:12.403Z,100601.00
2022-08-17T17:49:43.823Z,100610.97
2022-08-17T17:52:28.375Z,100625.00
2022-08-17T17:55:22.806Z,100625.13
2022-08-17T17:57:55.679Z,100625.69
2022-08-17T18:00:25.155Z,100633.72
2022-08-17T18:03:00.780Z,100638.78
2022-08-17T18:05:47.176Z,100638.50
2022-08-17T18:08:19.428Z,100636.13
2022-08-17T18:11:04.961Z,100634.00
2022-08-17T18:13:50.529Z,100621.94
2022-08-17T18:16:19.114Z,100625.16
2022-08-17T18:18:50.494Z,100626.25
2022-08-17T18:21:22.064Z,100620.06
2022-08-17T18:23:56.772Z,100636.91
2022-08-17T18:26:45.326Z,100641.69
2022-08-17T18:29:36.612Z,100632.34
2022-08-17T18:32:28.347Z,100634.72
2022-08-17T18:35:01.274Z,100641.66
2022-08-17T18:37:51.938Z,100641.34
2022-08-17T18:40:21.244Z,100653.75
2022-08-17T18:43:05.706Z,100651.91
2022-08-17T18:45:53.280Z,100654.53
2022-08-17T18:48:58.947Z,100664.19
2022-08-17T18:51:40.770Z,100666.34
2022-08-17T18:54:22.849Z,100663.38
2022-08-17T18:56:57.757Z,100678.03
2022-08-17T18:59:43.117Z,100688.72
2022-08-17T19:02:37.265Z,100687.88
2022-08-17T19:05:24.949Z,100696.41
2022-08-17T19:07:51.710Z,100692.16
2022-08-17T19:10:47.053Z,100698.28
2022-08-17T19:13:29.232Z,100697.19
2022-08-17T19:16:13.744Z,100707.22
2022-08-17T19:19:11.521Z,100708.34
2022-08-17T19:21:43.171Z,100713.56
2022-08-17T19:24:11.485Z,100707.84
2022-08-17T19:26:54.709Z,100717.25
2022-08-17T19:29:57.598Z,100703.59
2022-08-17T19:32:34.224Z,100708.09
2022-08-17T19:35:02.147Z,100710.38
2022-08-17T19:37:58.537Z,100703.41
2022-08-17T19:41:06.833Z,100706.75
2022-08-17T19:43:42.383Z,100707.03
2022-08-17T19:46:27.267Z,100696.06
2022-08-17T19:49:10.238Z,100693.56
2022-08-17T19:52:06.253Z,100696.66
2022-08-17T19:54:39.954Z,100705.31
2022-08-17T19:57:15.950Z,100692.47
2022-08-17T19:59:54.686Z,100701.19
2022-08-17T20:02:36.472Z,100711.66
2022-08-17T20:05:10.193Z,100716.69
2022-08-17T20:07:57.911Z,100715.84
2022-08-17T20:10:55.002Z,100725.63
2022-08-17T20:13:46.124Z,100718.38
2022-08-17T20:16:12.868Z,100723.41
2022-08-17T20:19:01.295Z,100724.41
2022-08-17T20:21:34.025Z,100731.03
2022-08-17T20:24:19.879Z,100735.50
2022-08-17T20:26:59.655Z,100732.53
2022-08-17T20:29:49.101Z,100730.91
2022-08-17T20:32:22.617Z,100729.25
2022-08-17T20:35:09.550Z,100727.66
2022-08-17T20:37:43.117Z,100728.44
2022-08-17T20:40:09.709Z,100734.22
2022-08-17T20:42:37.107Z,100733.88
2022-08-17T20:45:58.313Z,100724.81
2022-08-17T20:48:38.705Z,100730.38
2022-08-17T20:51:29.532Z,100729.81
2022-08-17T20:53:58.336Z,100726.88
2022-08-17T20:56:43.442Z,100726.88
2022-08-17T20:59:25.325Z,100720.97
2022-08-17T21:02:18.314Z,100732.63
2022-08-17T21:04:52.800Z,100731.97
2022-08-17T21:07:42.650Z,100737.97
2022-08-17T21:10:16.097Z,100738.13
2022-08-17T21:12:47.949Z,100733.00
2022-08-17T21:15:35.932Z,100739.88
2022-08-17T21:18:33.182Z,100735.31
2022-08-17T21:21:21.434Z,100741.91
2022-08-17T21:24:36.145Z,100747.94
2022-08-17T21:27:21.246Z,100746.81
2022-08-17T21:30:12.449Z,100739.28
2022-08-17T21:32:41.978Z,100749.34
2022-08-17T21:35:12.272Z,100743.47
2022-08-17T21:37:46.107Z,100744.78
2022-08-17T21:40:12.689Z,100746.53
2022-08-17T21:42:47.595Z,100740.00
2022-08-17T21:45:25.470Z,100745.34
2022-08-17T21:48:12.739Z,100749.03
2022-08-17T21:50:42.718Z,100753.22
2022-08-17T21:53:14.435Z,100753.22
2022-08-17T21:55:41.028Z,100763.06
2022-08-17T21:58:49.110Z,100758.47
2022-08-17T22:01:23.797Z,100752.03
2022-08-17T22:03:58.483Z,100750.09
2022-08-17T22:06:39.779Z,100749.78
2022-08-17T22:09:12.312Z,100752.38
2022-08-17T22:11:55.680Z,100760.56
2022-08-17T22:14:52.198Z,100765.78
2022-08-17T22:17:35.244Z,100766.28
2022-08-17T22:20:16.819Z,100774.25
2022-08-17T22:23:04.986Z,100786.13
2022-08-17T22:25:35.836Z,100780.50
2022-08-17T22:28:09.959Z,100775.66
2022-08-17T22:30:43.061Z,100797.72
2022-08-17T22:33:31.382Z,100784.91
2022-08-17T22:36:22.558Z,100781.91
2022-08-17T22:38:50.104Z,100776.44
2022-08-17T22:41:23.856Z,100770.78
2022-08-17T22:43:52.057Z,100774.59
2022-08-17T22:46:22.069Z,100776.09
2022-08-17T22:48:53.665Z,100769.88
2022-08-17T22:51:23.839Z,100779.84
2022-08-17T22:54:14.529Z,100773.16
2022-08-17T22:57:37.831Z,100777.09
2022-08-17T23:00:06.672Z,100767.03
2022-08-17T23:02:35.046Z,100770.78
2022-08-17T23:05:14.192Z,100776.44
2022-08-17T23:07:42.399Z,100778.44
2022-08-17T23:10:11.305Z,100777.81
2022-08-17T23:12:38.818Z,100779.34
2022-08-17T23:15:14.213Z,100788.91
2022-08-17T23:17:41.879Z,100783.50
2022-08-17T23:20:12.409Z,100784.19
2022-08-17T23:22:44.694Z,100789.75
2022-08-17T23:25:27.778Z,100783.75
2022-08-17T23:28:05.229Z,100785.59
2022-08-17T23:30:35.700Z,100784.31
2022-08-17T23:33:17.380Z,100786.41
2022-08-17T23:35:44.502Z,100776.00
2022-08-17T23:38:12.697Z,100781.53
2022-08-17T23:40:40.654Z,100787.34
2022-08-17T23:43:24.115Z,100794.72
2022-08-17T23:45:53.517Z,100794.94
2022-08-17T23:48:36.247Z,100802.34
2022-08-17T23:51:08.499Z,100791.38
2022-08-17T23:53:36.625Z,100793.44
2022-08-17T23:56:09.767Z,100795.50
2022-08-17T23:58:42.296Z,100793.91
